sensor_id;sensor_type;location;lat;lon;timestamp;P1;durP1;ratioP1;P2;durP2;ratioP2
19358;SDS011;9815;52.334;20.890;2022-12-10T00:01:37;97.63;;;38.20;;
19358;SDS011;9815;52.334;20.890;2022-12-10T00:04:09;98.40;;;37.30;;
19358;SDS011;9815;52.334;20.890;2022-12-10T00:06:38;106.33;;;38.23;;
19358;SDS011;9815;52.334;20.890;2022-12-10T00:09:09;104.20;;;36.70;;
19358;SDS011;9815;52.334;20.890;2022-12-10T00:11:39;103.47;;;38.30;;
19358;SDS011;9815;52.334;20.890;2022-12-10T00:14:07;109.60;;;38.03;;
19358;SDS011;9815;52.334;20.890;2022-12-10T00:16:36;108.83;;;37.77;;
19358;SDS011;9815;52.334;20.890;2022-12-10T00:19:04;107.73;;;38.00;;
19358;SDS011;9815;52.334;20.890;2022-12-10T00:21:34;104.47;;;38.57;;
19358;SDS011;9815;52.334;20.890;2022-12-10T00:24:03;97.63;;;37.43;;
19358;SDS011;9815;52.334;20.890;2022-12-10T00:26:33;99.57;;;37.53;;
19358;SDS011;9815;52.334;20.890;2022-12-10T00:29:03;111.33;;;39.57;;
19358;SDS011;9815;52.334;20.890;2022-12-10T00:31:34;100.93;;;37.40;;
19358;SDS011;9815;52.334;20.890;2022-12-10T00:34:04;103.47;;;37.67;;
19358;SDS011;9815;52.334;20.890;2022-12-10T00:36:37;99.33;;;35.23;;
19358;SDS011;9815;52.334;20.890;2022-12-10T00:39:06;101.33;;;37.80;;
19358;SDS011;9815;52.334;20.890;2022-12-10T00:41:34;103.27;;;38.37;;
19358;SDS011;9815;52.334;20.890;2022-12-10T00:44:02;104.50;;;36.57;;
19358;SDS011;9815;52.334;20.890;2022-12-10T00:46:31;105.07;;;38.03;;
19358;SDS011;9815;52.334;20.890;2022-12-10T00:49:00;107.17;;;38.10;;
19358;SDS011;9815;52.334;20.890;2022-12-10T00:51:29;107.40;;;38.43;;
19358;SDS011;9815;52.334;20.890;2022-12-10T00:53:58;106.40;;;39.07;;
19358;SDS011;9815;52.334;20.890;2022-12-10T00:56:28;115.47;;;39.20;;
19358;SDS011;9815;52.334;20.890;2022-12-10T00:58:58;107.73;;;38.20;;
19358;SDS011;9815;52.334;20.890;2022-12-10T01:01:28;102.47;;;39.00;;
19358;SDS011;9815;52.334;20.890;2022-12-10T01:03:58;111.13;;;40.40;;
19358;SDS011;9815;52.334;20.890;2022-12-10T01:06:28;102.67;;;38.17;;
19358;SDS011;9815;52.334;20.890;2022-12-10T01:08:59;105.87;;;36.67;;
19358;SDS011;9815;52.334;20.890;2022-12-10T01:11:30;107.80;;;38.83;;
19358;SDS011;9815;52.334;20.890;2022-12-10T01:13:59;103.63;;;36.77;;
19358;SDS011;9815;52.334;20.890;2022-12-10T01:16:27;107.50;;;38.67;;
19358;SDS011;9815;52.334;20.890;2022-12-10T01:18:56;111.83;;;36.67;;
19358;SDS011;9815;52.334;20.890;2022-12-10T01:21:26;104.93;;;38.63;;
19358;SDS011;9815;52.334;20.890;2022-12-10T01:23:55;100.40;;;36.63;;
19358;SDS011;9815;52.334;20.890;2022-12-10T01:26:27;109.27;;;39.60;;
19358;SDS011;9815;52.334;20.890;2022-12-10T01:28:57;111.10;;;37.27;;
19358;SDS011;9815;52.334;20.890;2022-12-10T01:31:26;105.27;;;38.13;;
19358;SDS011;9815;52.334;20.890;2022-12-10T01:33:57;119.43;;;41.17;;
19358;SDS011;9815;52.334;20.890;2022-12-10T01:36:26;115.00;;;38.67;;
19358;SDS011;9815;52.334;20.890;2022-12-10T01:38:55;114.47;;;38.43;;
19358;SDS011;9815;52.334;20.890;2022-12-10T01:41:24;101.80;;;37.83;;
19358;SDS011;9815;52.334;20.890;2022-12-10T01:43:56;100.30;;;36.93;;
19358;SDS011;9815;52.334;20.890;2022-12-10T01:46:27;104.23;;;36.90;;
19358;SDS011;9815;52.334;20.890;2022-12-10T01:48:56;101.33;;;37.53;;
19358;SDS011;9815;52.334;20.890;2022-12-10T01:51:27;111.33;;;39.70;;
19358;SDS011;9815;52.334;20.890;2022-12-10T01:54:03;102.63;;;36.67;;
19358;SDS011;9815;52.334;20.890;2022-12-10T01:56:35;104.43;;;36.43;;
19358;SDS011;9815;52.334;20.890;2022-12-10T01:59:05;98.10;;;35.53;;
19358;SDS011;9815;52.334;20.890;2022-12-10T02:01:36;105.43;;;37.13;;
19358;SDS011;9815;52.334;20.890;2022-12-10T02:04:11;109.97;;;37.20;;
19358;SDS011;9815;52.334;20.890;2022-12-10T02:06:53;103.50;;;36.17;;
19358;SDS011;9815;52.334;20.890;2022-12-10T02:09:25;97.47;;;34.77;;
19358;SDS011;9815;52.334;20.890;2022-12-10T02:12:05;95.07;;;36.30;;
19358;SDS011;9815;52.334;20.890;2022-12-10T02:14:41;93.27;;;34.70;;
19358;SDS011;9815;52.334;20.890;2022-12-10T02:17:18;99.03;;;35.23;;
19358;SDS011;9815;52.334;20.890;2022-12-10T02:22:41;96.40;;;35.27;;
19358;SDS011;9815;52.334;20.890;2022-12-10T02:25:12;105.50;;;35.57;;
19358;SDS011;9815;52.334;20.890;2022-12-10T02:27:48;105.80;;;35.20;;
19358;SDS011;9815;52.334;20.890;2022-12-10T02:30:22;100.40;;;36.10;;
19358;SDS011;9815;52.334;20.890;2022-12-10T02:32:50;104.33;;;35.97;;
19358;SDS011;9815;52.334;20.890;2022-12-10T02:35:20;106.67;;;35.83;;
19358;SDS011;9815;52.334;20.890;2022-12-10T02:37:53;102.43;;;34.77;;
19358;SDS011;9815;52.334;20.890;2022-12-10T02:40:26;93.90;;;33.83;;
19358;SDS011;9815;52.334;20.890;2022-12-10T02:43:00;97.43;;;34.50;;
19358;SDS011;9815;52.334;20.890;2022-12-10T02:45:30;102.47;;;34.03;;
19358;SDS011;9815;52.334;20.890;2022-12-10T02:48:00;98.03;;;34.87;;
19358;SDS011;9815;52.334;20.890;2022-12-10T02:50:36;105.67;;;35.90;;
19358;SDS011;9815;52.334;20.890;2022-12-10T02:53:05;102.17;;;35.50;;
19358;SDS011;9815;52.334;20.890;2022-12-10T02:55:37;107.80;;;36.50;;
19358;SDS011;9815;52.334;20.890;2022-12-10T02:58:15;104.63;;;36.43;;
19358;SDS011;9815;52.334;20.890;2022-12-10T03:00:56;103.23;;;34.67;;
19358;SDS011;9815;52.334;20.890;2022-12-10T03:03:30;91.93;;;34.57;;
19358;SDS011;9815;52.334;20.890;2022-12-10T03:06:06;98.87;;;33.67;;
19358;SDS011;9815;52.334;20.890;2022-12-10T03:08:39;97.10;;;33.83;;
19358;SDS011;9815;52.334;20.890;2022-12-10T03:11:12;104.33;;;34.97;;
19358;SDS011;9815;52.334;20.890;2022-12-10T03:13:43;95.40;;;33.97;;
19358;SDS011;9815;52.334;20.890;2022-12-10T03:16:18;108.53;;;34.57;;
19358;SDS011;9815;52.334;20.890;2022-12-10T03:18:49;94.70;;;33.53;;
19358;SDS011;9815;52.334;20.890;2022-12-10T03:21:20;100.63;;;33.97;;
19358;SDS011;9815;52.334;20.890;2022-12-10T03:23:52;111.00;;;34.93;;
19358;SDS011;9815;52.334;20.890;2022-12-10T03:26:20;104.50;;;35.00;;
19358;SDS011;9815;52.334;20.890;2022-12-10T03:28:50;101.27;;;33.33;;
19358;SDS011;9815;52.334;20.890;2022-12-10T03:31:20;96.10;;;32.90;;
19358;SDS011;9815;52.334;20.890;2022-12-10T03:33:49;101.30;;;32.40;;
19358;SDS011;9815;52.334;20.890;2022-12-10T03:36:19;105.07;;;34.47;;
19358;SDS011;9815;52.334;20.890;2022-12-10T03:38:49;106.87;;;35.90;;
19358;SDS011;9815;52.334;20.890;2022-12-10T03:41:17;118.70;;;39.00;;
19358;SDS011;9815;52.334;20.890;2022-12-10T03:43:52;111.73;;;38.60;;
19358;SDS011;9815;52.334;20.890;2022-12-10T03:46:22;99.17;;;33.93;;
19358;SDS011;9815;52.334;20.890;2022-12-10T03:48:52;101.00;;;32.97;;
19358;SDS011;9815;52.334;20.890;2022-12-10T03:51:20;100.13;;;33.33;;
19358;SDS011;9815;52.334;20.890;2022-12-10T03:53:49;103.87;;;35.27;;
19358;SDS011;9815;52.334;20.890;2022-12-10T03:56:17;110.33;;;34.93;;
19358;SDS011;9815;52.334;20.890;2022-12-10T03:58:45;96.57;;;31.67;;
19358;SDS011;9815;52.334;20.890;2022-12-10T04:01:14;96.30;;;33.43;;
19358;SDS011;9815;52.334;20.890;2022-12-10T04:03:43;95.63;;;30.77;;
19358;SDS011;9815;52.334;20.890;2022-12-10T04:06:12;93.37;;;30.80;;
19358;SDS011;9815;52.334;20.890;2022-12-10T04:08:43;93.77;;;30.73;;
19358;SDS011;9815;52.334;20.890;2022-12-10T04:11:11;101.67;;;31.83;;
19358;SDS011;9815;52.334;20.890;2022-12-10T04:13:40;96.83;;;29.90;;
19358;SDS011;9815;52.334;20.890;2022-12-10T04:16:27;92.30;;;29.57;;
19358;SDS011;9815;52.334;20.890;2022-12-10T04:18:58;92.53;;;30.43;;
19358;SDS011;9815;52.334;20.890;2022-12-10T04:21:27;94.40;;;31.00;;
19358;SDS011;9815;52.334;20.890;2022-12-10T04:24:14;101.47;;;31.90;;
19358;SDS011;9815;52.334;20.890;2022-12-10T04:27:02;101.00;;;31.50;;
19358;SDS011;9815;52.334;20.890;2022-12-10T04:29:32;102.13;;;32.43;;
19358;SDS011;9815;52.334;20.890;2022-12-10T04:32:00;100.90;;;31.63;;
19358;SDS011;9815;52.334;20.890;2022-12-10T04:34:29;111.10;;;32.10;;
19358;SDS011;9815;52.334;20.890;2022-12-10T04:36:58;97.57;;;29.67;;
19358;SDS011;9815;52.334;20.890;2022-12-10T04:39:26;109.50;;;32.33;;
19358;SDS011;9815;52.334;20.890;2022-12-10T04:41:54;101.83;;;32.00;;
19358;SDS011;9815;52.334;20.890;2022-12-10T04:44:23;108.93;;;32.67;;
19358;SDS011;9815;52.334;20.890;2022-12-10T04:46:51;99.53;;;29.73;;
19358;SDS011;9815;52.334;20.890;2022-12-10T04:49:19;120.70;;;32.63;;
19358;SDS011;9815;52.334;20.890;2022-12-10T04:51:49;108.40;;;31.23;;
19358;SDS011;9815;52.334;20.890;2022-12-10T04:54:18;97.63;;;31.37;;
19358;SDS011;9815;52.334;20.890;2022-12-10T04:56:47;97.80;;;31.60;;
19358;SDS011;9815;52.334;20.890;2022-12-10T04:59:15;109.07;;;32.87;;
19358;SDS011;9815;52.334;20.890;2022-12-10T05:01:43;97.30;;;30.53;;
19358;SDS011;9815;52.334;20.890;2022-12-10T05:04:12;100.43;;;33.90;;
19358;SDS011;9815;52.334;20.890;2022-12-10T05:06:42;114.57;;;35.13;;
19358;SDS011;9815;52.334;20.890;2022-12-10T05:09:12;113.73;;;33.17;;
19358;SDS011;9815;52.334;20.890;2022-12-10T05:11:40;109.70;;;34.30;;
19358;SDS011;9815;52.334;20.890;2022-12-10T05:14:10;124.87;;;36.47;;
19358;SDS011;9815;52.334;20.890;2022-12-10T05:16:38;113.47;;;34.60;;
19358;SDS011;9815;52.334;20.890;2022-12-10T05:19:07;106.17;;;31.93;;
19358;SDS011;9815;52.334;20.890;2022-12-10T05:21:37;101.90;;;30.93;;
19358;SDS011;9815;52.334;20.890;2022-12-10T05:24:24;104.03;;;32.40;;
19358;SDS011;9815;52.334;20.890;2022-12-10T05:26:52;114.20;;;34.93;;
19358;SDS011;9815;52.334;20.890;2022-12-10T05:29:20;104.63;;;34.07;;
19358;SDS011;9815;52.334;20.890;2022-12-10T05:31:48;107.17;;;32.23;;
19358;SDS011;9815;52.334;20.890;2022-12-10T05:34:16;107.77;;;32.93;;
19358;SDS011;9815;52.334;20.890;2022-12-10T05:36:44;103.07;;;32.50;;
19358;SDS011;9815;52.334;20.890;2022-12-10T05:39:12;96.97;;;32.30;;
19358;SDS011;9815;52.334;20.890;2022-12-10T05:41:41;123.60;;;39.63;;
19358;SDS011;9815;52.334;20.890;2022-12-10T05:44:12;112.47;;;33.87;;
19358;SDS011;9815;52.334;20.890;2022-12-10T05:46:40;105.67;;;32.20;;
19358;SDS011;9815;52.334;20.890;2022-12-10T05:49:08;95.30;;;30.83;;
19358;SDS011;9815;52.334;20.890;2022-12-10T05:51:36;99.10;;;29.43;;
19358;SDS011;9815;52.334;20.890;2022-12-10T05:54:05;87.23;;;29.50;;
19358;SDS011;9815;52.334;20.890;2022-12-10T05:56:35;85.70;;;26.70;;
19358;SDS011;9815;52.334;20.890;2022-12-10T05:59:05;77.27;;;25.47;;
19358;SDS011;9815;52.334;20.890;2022-12-10T06:01:41;70.93;;;24.60;;
19358;SDS011;9815;52.334;20.890;2022-12-10T06:04:09;72.10;;;25.50;;
19358;SDS011;9815;52.334;20.890;2022-12-10T06:06:38;75.50;;;24.90;;
19358;SDS011;9815;52.334;20.890;2022-12-10T06:09:07;82.93;;;27.10;;
19358;SDS011;9815;52.334;20.890;2022-12-10T06:11:39;87.73;;;26.90;;
19358;SDS011;9815;52.334;20.890;2022-12-10T06:14:09;104.17;;;32.50;;
19358;SDS011;9815;52.334;20.890;2022-12-10T06:16:38;93.73;;;30.13;;
19358;SDS011;9815;52.334;20.890;2022-12-10T06:19:07;93.23;;;29.27;;
19358;SDS011;9815;52.334;20.890;2022-12-10T06:21:35;91.90;;;25.97;;
19358;SDS011;9815;52.334;20.890;2022-12-10T06:24:03;96.87;;;29.37;;
19358;SDS011;9815;52.334;20.890;2022-12-10T06:26:31;91.03;;;27.73;;
19358;SDS011;9815;52.334;20.890;2022-12-10T06:28:59;82.97;;;25.67;;
19358;SDS011;9815;52.334;20.890;2022-12-10T06:31:29;100.40;;;31.97;;
19358;SDS011;9815;52.334;20.890;2022-12-10T06:33:57;96.67;;;30.37;;
19358;SDS011;9815;52.334;20.890;2022-12-10T06:36:25;91.43;;;27.17;;
19358;SDS011;9815;52.334;20.890;2022-12-10T06:38:53;100.20;;;27.87;;
19358;SDS011;9815;52.334;20.890;2022-12-10T06:41:21;94.50;;;28.97;;
19358;SDS011;9815;52.334;20.890;2022-12-10T06:43:49;114.77;;;34.67;;
19358;SDS011;9815;52.334;20.890;2022-12-10T06:46:18;86.37;;;26.60;;
19358;SDS011;9815;52.334;20.890;2022-12-10T06:48:48;78.93;;;25.30;;
19358;SDS011;9815;52.334;20.890;2022-12-10T06:51:16;81.83;;;24.90;;
19358;SDS011;9815;52.334;20.890;2022-12-10T06:53:45;95.70;;;27.20;;
19358;SDS011;9815;52.334;20.890;2022-12-10T06:56:14;101.40;;;27.97;;
19358;SDS011;9815;52.334;20.890;2022-12-10T06:58:43;96.33;;;28.03;;
19358;SDS011;9815;52.334;20.890;2022-12-10T07:01:12;87.10;;;25.57;;
19358;SDS011;9815;52.334;20.890;2022-12-10T07:03:42;91.10;;;26.67;;
19358;SDS011;9815;52.334;20.890;2022-12-10T07:06:12;101.50;;;29.10;;
19358;SDS011;9815;52.334;20.890;2022-12-10T07:08:40;101.47;;;28.03;;
19358;SDS011;9815;52.334;20.890;2022-12-10T07:11:09;91.67;;;29.47;;
19358;SDS011;9815;52.334;20.890;2022-12-10T07:13:38;94.57;;;29.03;;
19358;SDS011;9815;52.334;20.890;2022-12-10T07:16:11;92.17;;;26.77;;
19358;SDS011;9815;52.334;20.890;2022-12-10T07:18:41;93.17;;;26.43;;
19358;SDS011;9815;52.334;20.890;2022-12-10T07:21:17;84.07;;;27.13;;
19358;SDS011;9815;52.334;20.890;2022-12-10T07:23:47;90.90;;;26.93;;
19358;SDS011;9815;52.334;20.890;2022-12-10T07:26:15;86.30;;;26.87;;
19358;SDS011;9815;52.334;20.890;2022-12-10T07:28:43;76.53;;;25.73;;
19358;SDS011;9815;52.334;20.890;2022-12-10T07:31:18;76.57;;;23.40;;
19358;SDS011;9815;52.334;20.890;2022-12-10T07:33:48;78.73;;;24.37;;
19358;SDS011;9815;52.334;20.890;2022-12-10T07:36:17;73.90;;;22.27;;
19358;SDS011;9815;52.334;20.890;2022-12-10T07:38:46;85.83;;;24.77;;
19358;SDS011;9815;52.334;20.890;2022-12-10T07:41:14;82.93;;;24.97;;
19358;SDS011;9815;52.334;20.890;2022-12-10T07:43:43;77.50;;;23.70;;
19358;SDS011;9815;52.334;20.890;2022-12-10T07:46:12;74.23;;;22.87;;
19358;SDS011;9815;52.334;20.890;2022-12-10T07:48:42;76.37;;;22.90;;
19358;SDS011;9815;52.334;20.890;2022-12-10T07:51:15;74.73;;;22.30;;
19358;SDS011;9815;52.334;20.890;2022-12-10T07:53:47;73.90;;;23.23;;
19358;SDS011;9815;52.334;20.890;2022-12-10T07:56:15;79.27;;;24.33;;
19358;SDS011;9815;52.334;20.890;2022-12-10T07:58:44;74.90;;;23.67;;
19358;SDS011;9815;52.334;20.890;2022-12-10T08:01:13;66.13;;;21.60;;
19358;SDS011;9815;52.334;20.890;2022-12-10T08:03:42;69.97;;;22.73;;
19358;SDS011;9815;52.334;20.890;2022-12-10T08:06:11;67.73;;;22.70;;
19358;SDS011;9815;52.334;20.890;2022-12-10T08:08:42;68.17;;;21.60;;
19358;SDS011;9815;52.334;20.890;2022-12-10T08:11:11;56.83;;;20.23;;
19358;SDS011;9815;52.334;20.890;2022-12-10T08:13:40;65.00;;;21.33;;
19358;SDS011;9815;52.334;20.890;2022-12-10T08:16:10;63.27;;;20.30;;
19358;SDS011;9815;52.334;20.890;2022-12-10T08:18:40;57.77;;;19.67;;
19358;SDS011;9815;52.334;20.890;2022-12-10T08:21:10;61.27;;;20.73;;
19358;SDS011;9815;52.334;20.890;2022-12-10T08:23:39;57.47;;;19.67;;
19358;SDS011;9815;52.334;20.890;2022-12-10T08:26:10;68.47;;;22.47;;
19358;SDS011;9815;52.334;20.890;2022-12-10T08:28:39;64.07;;;21.10;;
19358;SDS011;9815;52.334;20.890;2022-12-10T08:31:08;65.90;;;21.33;;
19358;SDS011;9815;52.334;20.890;2022-12-10T08:33:38;67.77;;;21.10;;
19358;SDS011;9815;52.334;20.890;2022-12-10T08:36:07;70.50;;;21.20;;
19358;SDS011;9815;52.334;20.890;2022-12-10T08:38:37;63.03;;;22.10;;
19358;SDS011;9815;52.334;20.890;2022-12-10T08:41:06;72.37;;;21.00;;
19358;SDS011;9815;52.334;20.890;2022-12-10T08:43:37;71.77;;;23.13;;
19358;SDS011;9815;52.334;20.890;2022-12-10T08:46:05;71.37;;;22.53;;
19358;SDS011;9815;52.334;20.890;2022-12-10T08:48:34;73.97;;;24.00;;
19358;SDS011;9815;52.334;20.890;2022-12-10T08:51:03;69.23;;;21.83;;
19358;SDS011;9815;52.334;20.890;2022-12-10T08:53:31;74.70;;;23.30;;
19358;SDS011;9815;52.334;20.890;2022-12-10T08:56:00;64.27;;;21.97;;
19358;SDS011;9815;52.334;20.890;2022-12-10T08:58:29;76.13;;;24.70;;
19358;SDS011;9815;52.334;20.890;2022-12-10T09:00:57;76.80;;;25.10;;
19358;SDS011;9815;52.334;20.890;2022-12-10T09:03:27;71.43;;;23.70;;
19358;SDS011;9815;52.334;20.890;2022-12-10T09:05:56;69.17;;;23.77;;
19358;SDS011;9815;52.334;20.890;2022-12-10T09:08:28;73.43;;;23.80;;
19358;SDS011;9815;52.334;20.890;2022-12-10T09:10:56;65.50;;;21.97;;
19358;SDS011;9815;52.334;20.890;2022-12-10T09:13:24;66.73;;;22.67;;
19358;SDS011;9815;52.334;20.890;2022-12-10T09:15:53;68.50;;;21.13;;
19358;SDS011;9815;52.334;20.890;2022-12-10T09:18:22;64.80;;;21.67;;
19358;SDS011;9815;52.334;20.890;2022-12-10T09:20:50;67.67;;;21.30;;
19358;SDS011;9815;52.334;20.890;2022-12-10T09:23:18;67.17;;;21.43;;
19358;SDS011;9815;52.334;20.890;2022-12-10T09:25:46;67.70;;;21.33;;
19358;SDS011;9815;52.334;20.890;2022-12-10T09:28:14;58.40;;;19.20;;
19358;SDS011;9815;52.334;20.890;2022-12-10T09:30:43;58.27;;;19.30;;
19358;SDS011;9815;52.334;20.890;2022-12-10T09:33:12;61.10;;;20.07;;
19358;SDS011;9815;52.334;20.890;2022-12-10T09:35:40;60.87;;;20.13;;
19358;SDS011;9815;52.334;20.890;2022-12-10T09:38:10;52.70;;;18.10;;
19358;SDS011;9815;52.334;20.890;2022-12-10T09:40:39;64.20;;;20.13;;
19358;SDS011;9815;52.334;20.890;2022-12-10T09:43:13;69.17;;;20.67;;
19358;SDS011;9815;52.334;20.890;2022-12-10T09:45:48;65.57;;;20.77;;
19358;SDS011;9815;52.334;20.890;2022-12-10T09:48:29;65.73;;;20.93;;
19358;SDS011;9815;52.334;20.890;2022-12-10T09:51:03;74.10;;;21.60;;
19358;SDS011;9815;52.334;20.890;2022-12-10T09:53:36;67.70;;;20.40;;
19358;SDS011;9815;52.334;20.890;2022-12-10T09:56:08;60.67;;;20.33;;
19358;SDS011;9815;52.334;20.890;2022-12-10T09:58:47;66.87;;;20.73;;
19358;SDS011;9815;52.334;20.890;2022-12-10T10:01:16;66.57;;;21.27;;
19358;SDS011;9815;52.334;20.890;2022-12-10T10:03:48;67.53;;;22.30;;
19358;SDS011;9815;52.334;20.890;2022-12-10T10:06:17;69.60;;;21.83;;
19358;SDS011;9815;52.334;20.890;2022-12-10T10:08:46;66.47;;;21.37;;
19358;SDS011;9815;52.334;20.890;2022-12-10T10:11:19;59.67;;;20.70;;
19358;SDS011;9815;52.334;20.890;2022-12-10T10:13:52;62.83;;;20.17;;
19358;SDS011;9815;52.334;20.890;2022-12-10T10:16:23;58.17;;;19.30;;
19358;SDS011;9815;52.334;20.890;2022-12-10T10:18:56;59.40;;;19.30;;
19358;SDS011;9815;52.334;20.890;2022-12-10T10:21:28;66.13;;;20.10;;
19358;SDS011;9815;52.334;20.890;2022-12-10T10:24:04;61.80;;;21.70;;
19358;SDS011;9815;52.334;20.890;2022-12-10T10:26:37;64.17;;;21.13;;
19358;SDS011;9815;52.334;20.890;2022-12-10T10:29:07;69.93;;;22.57;;
19358;SDS011;9815;52.334;20.890;2022-12-10T10:31:38;68.87;;;22.63;;
19358;SDS011;9815;52.334;20.890;2022-12-10T10:34:13;66.57;;;21.00;;
19358;SDS011;9815;52.334;20.890;2022-12-10T10:36:43;62.70;;;20.93;;
19358;SDS011;9815;52.334;20.890;2022-12-10T10:39:18;75.93;;;21.73;;
19358;SDS011;9815;52.334;20.890;2022-12-10T10:41:54;65.77;;;22.30;;
19358;SDS011;9815;52.334;20.890;2022-12-10T10:44:25;64.97;;;21.53;;
19358;SDS011;9815;52.334;20.890;2022-12-10T10:47:01;59.00;;;20.57;;
19358;SDS011;9815;52.334;20.890;2022-12-10T10:49:32;64.47;;;19.83;;
19358;SDS011;9815;52.334;20.890;2022-12-10T10:52:04;65.80;;;20.63;;
19358;SDS011;9815;52.334;20.890;2022-12-10T10:54:34;62.67;;;20.10;;
19358;SDS011;9815;52.334;20.890;2022-12-10T10:57:10;57.43;;;18.63;;
19358;SDS011;9815;52.334;20.890;2022-12-10T10:59:43;57.80;;;18.53;;
19358;SDS011;9815;52.334;20.890;2022-12-10T11:02:17;67.63;;;21.00;;
19358;SDS011;9815;52.334;20.890;2022-12-10T11:04:49;71.00;;;22.47;;
19358;SDS011;9815;52.334;20.890;2022-12-10T11:07:21;72.20;;;21.77;;
19358;SDS011;9815;52.334;20.890;2022-12-10T11:09:53;69.90;;;21.53;;
19358;SDS011;9815;52.334;20.890;2022-12-10T11:18:00;70.10;;;22.80;;
19358;SDS011;9815;52.334;20.890;2022-12-10T11:20:30;71.50;;;21.60;;
19358;SDS011;9815;52.334;20.890;2022-12-10T11:23:08;65.03;;;20.10;;
19358;SDS011;9815;52.334;20.890;2022-12-10T11:25:40;72.70;;;20.57;;
19358;SDS011;9815;52.334;20.890;2022-12-10T11:28:22;74.17;;;21.53;;
19358;SDS011;9815;52.334;20.890;2022-12-10T11:31:10;69.00;;;20.40;;
19358;SDS011;9815;52.334;20.890;2022-12-10T11:33:46;74.37;;;23.10;;
19358;SDS011;9815;52.334;20.890;2022-12-10T11:36:27;77.43;;;23.27;;
19358;SDS011;9815;52.334;20.890;2022-12-10T11:39:03;76.03;;;22.07;;
19358;SDS011;9815;52.334;20.890;2022-12-10T11:41:44;73.53;;;23.80;;
19358;SDS011;9815;52.334;20.890;2022-12-10T11:44:22;78.17;;;26.13;;
19358;SDS011;9815;52.334;20.890;2022-12-10T11:47:06;73.00;;;22.93;;
19358;SDS011;9815;52.334;20.890;2022-12-10T11:49:48;68.20;;;21.40;;
19358;SDS011;9815;52.334;20.890;2022-12-10T11:52:27;64.47;;;22.40;;
19358;SDS011;9815;52.334;20.890;2022-12-10T11:55:09;65.70;;;19.77;;
19358;SDS011;9815;52.334;20.890;2022-12-10T11:57:49;55.47;;;17.97;;
19358;SDS011;9815;52.334;20.890;2022-12-10T12:00:24;50.90;;;17.90;;
19358;SDS011;9815;52.334;20.890;2022-12-10T12:03:11;64.07;;;19.17;;
19358;SDS011;9815;52.334;20.890;2022-12-10T12:06:03;55.33;;;18.17;;
19358;SDS011;9815;52.334;20.890;2022-12-10T12:08:51;59.30;;;18.20;;
19358;SDS011;9815;52.334;20.890;2022-12-10T12:11:34;59.37;;;18.93;;
19358;SDS011;9815;52.334;20.890;2022-12-10T12:14:21;56.80;;;18.87;;
19358;SDS011;9815;52.334;20.890;2022-12-10T12:16:56;60.63;;;20.53;;
19358;SDS011;9815;52.334;20.890;2022-12-10T12:19:32;65.97;;;18.83;;
19358;SDS011;9815;52.334;20.890;2022-12-10T12:22:09;52.23;;;18.00;;
19358;SDS011;9815;52.334;20.890;2022-12-10T12:24:44;58.77;;;19.00;;
19358;SDS011;9815;52.334;20.890;2022-12-10T12:27:17;45.93;;;17.10;;
19358;SDS011;9815;52.334;20.890;2022-12-10T12:29:54;47.40;;;18.17;;
19358;SDS011;9815;52.334;20.890;2022-12-10T12:32:37;55.47;;;19.43;;
19358;SDS011;9815;52.334;20.890;2022-12-10T12:35:11;54.20;;;18.10;;
19358;SDS011;9815;52.334;20.890;2022-12-10T12:37:45;50.83;;;18.20;;
19358;SDS011;9815;52.334;20.890;2022-12-10T12:40:23;50.97;;;18.53;;
19358;SDS011;9815;52.334;20.890;2022-12-10T12:42:57;56.03;;;18.73;;
19358;SDS011;9815;52.334;20.890;2022-12-10T12:45:32;63.00;;;21.90;;
19358;SDS011;9815;52.334;20.890;2022-12-10T12:48:10;64.17;;;22.53;;
19358;SDS011;9815;52.334;20.890;2022-12-10T12:50:48;71.13;;;21.70;;
19358;SDS011;9815;52.334;20.890;2022-12-10T12:53:20;73.63;;;23.83;;
19358;SDS011;9815;52.334;20.890;2022-12-10T12:55:58;64.93;;;22.77;;
19358;SDS011;9815;52.334;20.890;2022-12-10T12:58:31;54.13;;;18.57;;
19358;SDS011;9815;52.334;20.890;2022-12-10T13:01:12;56.97;;;17.27;;
19358;SDS011;9815;52.334;20.890;2022-12-10T13:03:48;48.17;;;17.93;;
19358;SDS011;9815;52.334;20.890;2022-12-10T13:06:20;61.37;;;21.30;;
19358;SDS011;9815;52.334;20.890;2022-12-10T13:08:52;58.47;;;18.33;;
19358;SDS011;9815;52.334;20.890;2022-12-10T13:11:30;51.20;;;18.07;;
19358;SDS011;9815;52.334;20.890;2022-12-10T13:17:00;49.53;;;19.00;;
19358;SDS011;9815;52.334;20.890;2022-12-10T13:19:34;62.57;;;22.00;;
19358;SDS011;9815;52.334;20.890;2022-12-10T13:22:07;57.70;;;20.17;;
19358;SDS011;9815;52.334;20.890;2022-12-10T13:24:59;45.00;;;16.63;;
19358;SDS011;9815;52.334;20.890;2022-12-10T13:27:40;41.53;;;16.47;;
19358;SDS011;9815;52.334;20.890;2022-12-10T13:30:29;42.57;;;16.33;;
19358;SDS011;9815;52.334;20.890;2022-12-10T13:33:09;52.40;;;19.07;;
19358;SDS011;9815;52.334;20.890;2022-12-10T13:35:44;54.53;;;18.90;;
19358;SDS011;9815;52.334;20.890;2022-12-10T13:38:20;64.97;;;23.80;;
19358;SDS011;9815;52.334;20.890;2022-12-10T13:40:57;61.43;;;23.80;;
19358;SDS011;9815;52.334;20.890;2022-12-10T13:43:53;43.23;;;17.17;;
19358;SDS011;9815;52.334;20.890;2022-12-10T13:46:51;48.93;;;18.63;;
19358;SDS011;9815;52.334;20.890;2022-12-10T13:49:22;48.93;;;19.40;;
19358;SDS011;9815;52.334;20.890;2022-12-10T13:51:52;49.33;;;19.73;;
19358;SDS011;9815;52.334;20.890;2022-12-10T13:54:34;42.97;;;17.13;;
19358;SDS011;9815;52.334;20.890;2022-12-10T13:57:28;51.53;;;20.63;;
19358;SDS011;9815;52.334;20.890;2022-12-10T14:00:09;42.33;;;17.23;;
19358;SDS011;9815;52.334;20.890;2022-12-10T14:08:45;78.67;;;23.77;;
19358;SDS011;9815;52.334;20.890;2022-12-10T14:11:25;64.73;;;21.20;;
19358;SDS011;9815;52.334;20.890;2022-12-10T14:14:03;60.30;;;21.43;;
19358;SDS011;9815;52.334;20.890;2022-12-10T14:16:35;55.77;;;20.53;;
19358;SDS011;9815;52.334;20.890;2022-12-10T14:19:07;53.87;;;18.97;;
19358;SDS011;9815;52.334;20.890;2022-12-10T14:21:40;45.43;;;19.10;;
19358;SDS011;9815;52.334;20.890;2022-12-10T14:24:25;51.23;;;20.17;;
19358;SDS011;9815;52.334;20.890;2022-12-10T14:26:58;51.23;;;19.10;;
19358;SDS011;9815;52.334;20.890;2022-12-10T14:29:28;45.77;;;18.90;;
19358;SDS011;9815;52.334;20.890;2022-12-10T14:31:58;51.43;;;20.13;;
19358;SDS011;9815;52.334;20.890;2022-12-10T14:34:27;60.80;;;22.30;;
19358;SDS011;9815;52.334;20.890;2022-12-10T14:36:57;51.60;;;20.83;;
19358;SDS011;9815;52.334;20.890;2022-12-10T14:39:30;50.80;;;21.43;;
19358;SDS011;9815;52.334;20.890;2022-12-10T14:42:01;48.93;;;20.87;;
19358;SDS011;9815;52.334;20.890;2022-12-10T14:44:33;52.20;;;20.50;;
19358;SDS011;9815;52.334;20.890;2022-12-10T14:47:12;50.10;;;21.27;;
19358;SDS011;9815;52.334;20.890;2022-12-10T14:49:42;52.07;;;23.00;;
19358;SDS011;9815;52.334;20.890;2022-12-10T14:52:12;60.93;;;23.67;;
19358;SDS011;9815;52.334;20.890;2022-12-10T14:54:42;62.33;;;26.37;;
19358;SDS011;9815;52.334;20.890;2022-12-10T14:57:13;58.27;;;23.70;;
19358;SDS011;9815;52.334;20.890;2022-12-10T14:59:46;55.90;;;22.90;;
19358;SDS011;9815;52.334;20.890;2022-12-10T15:02:20;57.37;;;23.13;;
19358;SDS011;9815;52.334;20.890;2022-12-10T15:04:52;56.90;;;23.17;;